Airfield :
LOGIN :

Register | Disclaimer

   EN    FR    IT 

 










Legend :    VFR   Marginal VFR   IFR   Intensive IFR   Very Intensive IFR
Visi :
Ceiling :
>= 8 km
>= 3000ft
5 to 8 km
1000 to 3000 ft
1500m to 5 km
500 to 1000 ft
800 to 1500m
200 to 500 ft
< 800m
< 200 ft
Symbols :   Thunderstorms  Fog  Heavy snow  Heavy precipitations  Wind > 20 kt
SIGMETs :     Misc.  Thunderstorms  Icing  Turbulence  Mountain Waves  Volcanic Ashes







- Airport Elevation : 87 ft
- IATA code : AHO


LIEA - Fertilia Alghero

CURRENT METAR :
  • 191150Z 04010KT CAVOK 31/16 Q1017

EXPIRED METARs :
  • 191120Z 06009KT 010V090 CAVOK 31/17 Q1017
  • 191050Z 04009KT 350V100 CAVOK 30/18 Q1017
  • 191020Z 06008KT 030V100 CAVOK 30/18 Q1017
  • 190950Z 04011KT 010V070 CAVOK 30/16 Q1017
  • 190920Z 03009KT CAVOK 29/18 Q1017
  • 190850Z 04009KT 010V070 CAVOK 28/18 Q1017

TAF TAF LIEA
Valid from the 19 at 12:00 until the 20 at 12:00 UTC


191100Z 1912/2012 02010KT CAVOK
BECMG 1917/1919 VRB04KT
BECMG 2009/2011 29010KT
No reported NOTAMs for that airfield.
1 SIGMET reported for the Roma FIR (LIRR) :
 
Severe turbulence
LIRR SIGMET 2 VALID 190920/191120 LIIB
LIRR ROMA FIR SEV TURB FCST WI N3836 E00851 - N4038 E01121 - N4328 E01215 - N4304 E00949 - N4118 E00953 - N4118 E00827 - N4102 E00757 - N3905 E00758 - N3836 E00851 FL220/360 STNR WKN=



MET'MAP, your aeronautical weather chart ! - Copyright ORBIFLY December 2007 - Disclaimer

ORBIFLY MET'MAP TEAM :

Programming & Development : Alexandra Zaïnal
Concept & Development : Baudouin d'Aumeries
Co-Development & Prog : Marc-Olivier Méhu
Technical & hardware support : Manuel Goepfert

Contact : metmap@orbifly.com




SOURCES & CREDITS :

   NOAA